Dr.kaiyo — JD2325 — position and weather

sailwx.info

Track history (hours):
 
Tides and Currents Weather Stations Pressure Air Temp Water Temp Dewpoint Dewpoint Depression Visibility Wind Speed Wind Dir Waves Ship Positions

Dr.kaiyo

Last reported at 2016-Apr-28 04:33 UTC. Time now 2016-May-04 04:05 UTC.
Position N 34°40' E 135°15'.

Length 31 m.

Type: Other ship. MMSI: 431301823.

Date/timePositionNaut miles runAvg speedWind from/ knotsBaromVisibWave heightAir tempDewpointWater temp
2016-Apr-28 04:33N 34°40' E 135°15'3 3.1
2016-Apr-28 03:33N 34°39' E 135°12'3 2.9
2016-Apr-28 02:33N 34°37' E 135°09'8 8.5
2016-Apr-28 01:33N 34°32' E 135°17'8 7.7
2016-Apr-28 00:33N 34°32' E 135°07'1010.0
2016-Apr-27 23:33N 34°42' E 135°12'4 0.2
2016-Apr-27 04:33N 34°38' E 135°16'4 3.2
2016-Apr-27 03:28N 34°39' E 135°12'3 3.1
2016-Apr-27 02:33N 34°37' E 135°10'10 8.7
2016-Apr-27 01:27N 34°28' E 135°04'6 6.5
2016-Apr-27 00:32N 34°34' E 135°06'9 8.5
2016-Apr-26 23:28N 34°41' E 135°12'3 0.2
2016-Apr-26 05:33N 34°39' E 135°11'7 7.2
2016-Apr-26 04:33N 34°31' E 135°12'6 5.8
2016-Apr-26 03:31N 34°31' E 135°20'3 3.2
2016-Apr-26 02:33N 34°30' E 135°16'1010.4
2016-Apr-26 01:33N 34°27' E 135°04'8 7.5
2016-Apr-26 00:31N 34°34' E 135°06'9 8.9
2016-Apr-25 23:33N 34°41' E 135°12'3 0.1
2016-Apr-25 04:33N 34°40' E 135°15'4 3.3
2016-Apr-25 03:24N 34°40' E 135°20'4 4.3
2016-Apr-25 02:33N 34°36' E 135°18'1110.8
2016-Apr-25 01:33N 34°30' E 135°08'6 6.4
2016-Apr-25 00:33N 34°36' E 135°07'7 7.0
2016-Apr-24 23:31N 34°41' E 135°12'  
2016-Apr-21 04:33N 34°41' E 135°14'4 1.9
2016-Apr-21 02:33N 34°39' E 135°18'10 9.9
2016-Apr-21 01:33N 34°31' E 135°10'4 4.2
2016-Apr-21 00:33N 34°34' E 135°05'9 8.7
2016-Apr-20 23:28N 34°41' E 135°12'2 0.1
2016-Apr-20 04:33N 34°41' E 135°14'4 4.1
2016-Apr-20 03:28N 34°40' E 135°20'3 2.9
2016-Apr-20 02:33N 34°38' E 135°18'1212.5
2016-Apr-20 01:33N 34°29' E 135°07'3 3.3
2016-Apr-20 00:33N 34°32' E 135°08'10 9.7
2016-Apr-19 23:32N 34°41' E 135°12'1 0.0
2016-Apr-19 04:33N 34°41' E 135°12'3 2.6
2016-Apr-19 03:32N 34°38' E 135°11'5 4.9
2016-Apr-19 02:33N 34°34' E 135°09'7 5.7
2016-Apr-19 01:20N 34°30' E 135°02'7 8.4
2016-Apr-19 00:33N 34°33' E 135°09'9 8.0
2016-Apr-18 23:29N 34°41' E 135°12'  
Track history (hours):
 
Tides and Currents Weather Stations Pressure Air Temp Water Temp Dewpoint Dewpoint Depression Visibility Wind Speed Wind Dir Waves Ship Positions

Dr.kaiyo

Last reported at 2016-Apr-28 04:33 UTC. Time now 2016-May-04 04:05 UTC.
Position N 34°40' E 135°15'.

Length 31 m.

Type: Other ship. MMSI: 431301823.

Date/timePositionNaut miles runAvg speedWind from/ knotsBaromVisibWave heightAir tempDewpointWater temp
2016-Apr-28 04:33N 34°40' E 135°15'3 3.1
2016-Apr-28 03:33N 34°39' E 135°12'3 2.9
2016-Apr-28 02:33N 34°37' E 135°09'8 8.5
2016-Apr-28 01:33N 34°32' E 135°17'8 7.7
2016-Apr-28 00:33N 34°32' E 135°07'1010.0
2016-Apr-27 23:33N 34°42' E 135°12'4 0.2
2016-Apr-27 04:33N 34°38' E 135°16'4 3.2
2016-Apr-27 03:28N 34°39' E 135°12'3 3.1
2016-Apr-27 02:33N 34°37' E 135°10'10 8.7
2016-Apr-27 01:27N 34°28' E 135°04'6 6.5
2016-Apr-27 00:32N 34°34' E 135°06'9 8.5
2016-Apr-26 23:28N 34°41' E 135°12'3 0.2
2016-Apr-26 05:33N 34°39' E 135°11'7 7.2
2016-Apr-26 04:33N 34°31' E 135°12'6 5.8
2016-Apr-26 03:31N 34°31' E 135°20'3 3.2
2016-Apr-26 02:33N 34°30' E 135°16'1010.4
2016-Apr-26 01:33N 34°27' E 135°04'8 7.5
2016-Apr-26 00:31N 34°34' E 135°06'9 8.9
2016-Apr-25 23:33N 34°41' E 135°12'3 0.1
2016-Apr-25 04:33N 34°40' E 135°15'4 3.3
2016-Apr-25 03:24N 34°40' E 135°20'4 4.3
2016-Apr-25 02:33N 34°36' E 135°18'1110.8
2016-Apr-25 01:33N 34°30' E 135°08'6 6.4
2016-Apr-25 00:33N 34°36' E 135°07'7 7.0
2016-Apr-24 23:31N 34°41' E 135°12'  
2016-Apr-21 04:33N 34°41' E 135°14'4 1.9
2016-Apr-21 02:33N 34°39' E 135°18'10 9.9
2016-Apr-21 01:33N 34°31' E 135°10'4 4.2
2016-Apr-21 00:33N 34°34' E 135°05'9 8.7
2016-Apr-20 23:28N 34°41' E 135°12'2 0.1
2016-Apr-20 04:33N 34°41' E 135°14'4 4.1
2016-Apr-20 03:28N 34°40' E 135°20'3 2.9
2016-Apr-20 02:33N 34°38' E 135°18'1212.5
2016-Apr-20 01:33N 34°29' E 135°07'3 3.3
2016-Apr-20 00:33N 34°32' E 135°08'10 9.7
2016-Apr-19 23:32N 34°41' E 135°12'1 0.0
2016-Apr-19 04:33N 34°41' E 135°12'3 2.6
2016-Apr-19 03:32N 34°38' E 135°11'5 4.9
2016-Apr-19 02:33N 34°34' E 135°09'7 5.7
2016-Apr-19 01:20N 34°30' E 135°02'7 8.4
2016-Apr-19 00:33N 34°33' E 135°09'9 8.0
2016-Apr-18 23:29N 34°41' E 135°12'  

Dump ship's entire track history